createdAt,value
2023-03-16T00:02:15.003Z,3.83
2023-03-16T00:04:41.569Z,3.75
2023-03-16T00:07:09.709Z,3.63
2023-03-16T00:09:38.473Z,3.55
2023-03-16T00:12:05.112Z,3.03
2023-03-16T00:14:32.275Z,3.53
2023-03-16T00:16:58.849Z,3.25
2023-03-16T00:19:25.226Z,3.70
2023-03-16T00:21:52.165Z,3.00
2023-03-16T00:24:18.853Z,3.75
2023-03-16T00:26:47.514Z,3.55
2023-03-16T00:29:14.123Z,3.67
2023-03-16T00:31:41.533Z,3.05
2023-03-16T00:34:08.119Z,3.10
2023-03-16T00:36:34.495Z,2.85
2023-03-16T00:39:00.848Z,3.10
2023-03-16T00:41:27.402Z,3.03
2023-03-16T00:43:55.078Z,3.28
2023-03-16T00:46:21.497Z,3.13
2023-03-16T00:48:47.930Z,2.88
2023-03-16T00:51:16.715Z,2.95
2023-03-16T00:53:44.587Z,3.13
2023-03-16T00:56:12.646Z,2.85
2023-03-16T00:58:42.177Z,3.03
2023-03-16T01:01:12.773Z,3.65
2023-03-16T01:03:39.827Z,2.95
2023-03-16T01:06:07.890Z,2.22
2023-03-16T01:08:34.434Z,3.35
2023-03-16T01:11:03.244Z,2.70
2023-03-16T01:13:30.113Z,2.80
2023-03-16T01:15:56.499Z,2.65
2023-03-16T01:18:24.209Z,2.67
2023-03-16T01:20:50.555Z,2.70
2023-03-16T01:23:17.171Z,2.97
2023-03-16T01:25:43.953Z,2.85
2023-03-16T01:28:10.493Z,2.65
2023-03-16T01:30:36.904Z,2.80
2023-03-16T01:33:03.374Z,2.80
2023-03-16T01:35:31.101Z,2.92
2023-03-16T01:37:57.535Z,2.50
2023-03-16T01:40:24.029Z,3.65
2023-03-16T01:43:00.635Z,2.50
2023-03-16T01:46:04.277Z,2.85
2023-03-16T01:48:32.948Z,2.78
2023-03-16T01:51:00.766Z,3.92
2023-03-16T01:53:27.171Z,2.85
2023-03-16T01:55:54.170Z,4.18
2023-03-16T01:58:20.953Z,3.50
2023-03-16T02:00:47.463Z,3.05
2023-03-16T02:03:17.319Z,3.08
2023-03-16T02:05:50.684Z,3.17
2023-03-16T02:08:18.777Z,2.50
2023-03-16T02:10:46.023Z,2.80
2023-03-16T02:13:12.588Z,3.22
2023-03-16T02:15:39.814Z,3.13
2023-03-16T02:18:08.655Z,2.55
2023-03-16T02:20:41.430Z,3.05
2023-03-16T02:23:10.422Z,2.03
2023-03-16T02:25:45.798Z,2.67
2023-03-16T02:28:19.804Z,3.35
2023-03-16T02:30:48.151Z,2.85
2023-03-16T02:33:17.210Z,4.00
2023-03-16T02:35:44.254Z,2.83
2023-03-16T02:38:10.777Z,2.85
2023-03-16T02:40:37.428Z,2.75
2023-03-16T02:43:06.738Z,2.80
2023-03-16T02:45:36.656Z,2.85
2023-03-16T02:48:09.871Z,2.97
2023-03-16T02:50:36.228Z,3.13
2023-03-16T02:53:02.595Z,3.28
2023-03-16T02:55:28.952Z,2.88
2023-03-16T02:57:55.332Z,3.70
2023-03-16T03:00:22.605Z,3.15
2023-03-16T03:02:48.999Z,3.50
2023-03-16T03:05:16.927Z,2.92
2023-03-16T03:07:43.312Z,3.78
2023-03-16T03:10:10.662Z,2.55
2023-03-16T03:12:37.133Z,3.28
2023-03-16T03:15:04.491Z,2.55
2023-03-16T03:17:30.903Z,3.42
2023-03-16T03:19:58.007Z,2.78
2023-03-16T03:22:26.367Z,2.72
2023-03-16T03:24:53.272Z,2.67
2023-03-16T03:27:20.101Z,2.60
2023-03-16T03:29:46.573Z,3.15
2023-03-16T03:32:13.295Z,3.00
2023-03-16T03:34:39.754Z,2.45
2023-03-16T03:37:06.117Z,2.92
2023-03-16T03:39:33.838Z,2.78
2023-03-16T03:42:00.365Z,2.78
2023-03-16T03:44:26.729Z,2.65
2023-03-16T03:46:53.165Z,3.30
2023-03-16T03:49:19.701Z,3.38
2023-03-16T03:51:46.064Z,2.80
2023-03-16T03:54:12.401Z,2.83
2023-03-16T03:56:40.136Z,2.50
2023-03-16T03:59:06.541Z,2.70
2023-03-16T04:01:32.915Z,3.10
2023-03-16T04:03:59.334Z,2.97
2023-03-16T04:06:26.109Z,2.78
2023-03-16T04:08:52.517Z,3.20
2023-03-16T04:11:18.895Z,3.10
2023-03-16T04:13:46.612Z,2.38
2023-03-16T04:16:13.151Z,2.55
2023-03-16T04:18:39.546Z,2.80
2023-03-16T04:21:06.817Z,2.42
2023-03-16T04:23:34.003Z,2.75
2023-03-16T04:26:01.097Z,2.67
2023-03-16T04:28:27.561Z,2.60
2023-03-16T04:30:55.402Z,2.60
2023-03-16T04:33:22.126Z,2.85
2023-03-16T04:35:48.874Z,2.70
2023-03-16T04:38:15.261Z,2.45
2023-03-16T04:40:41.667Z,2.42
2023-03-16T04:43:08.024Z,2.60
2023-03-16T04:45:34.456Z,2.50
2023-03-16T04:48:03.569Z,2.47
2023-03-16T04:50:30.197Z,3.22
2023-03-16T04:52:56.760Z,2.50
2023-03-16T04:55:23.402Z,2.60
2023-03-16T04:57:49.843Z,2.67
2023-03-16T05:00:16.330Z,2.53
2023-03-16T05:02:42.735Z,2.53
2023-03-16T05:05:10.573Z,2.10
2023-03-16T05:07:36.993Z,2.75
2023-03-16T05:10:03.593Z,2.72
2023-03-16T05:12:30.034Z,3.00
2023-03-16T05:14:56.410Z,3.22
2023-03-16T05:17:22.829Z,2.78
2023-03-16T05:19:49.250Z,2.55
2023-03-16T05:22:17.137Z,2.50
2023-03-16T05:24:43.552Z,2.47
2023-03-16T05:27:09.982Z,2.78
2023-03-16T05:29:36.554Z,2.65
2023-03-16T05:32:03.222Z,2.40
2023-03-16T05:34:29.585Z,2.25
2023-03-16T05:36:55.953Z,3.08
2023-03-16T05:39:23.712Z,3.05
2023-03-16T05:41:50.176Z,3.00
2023-03-16T05:44:16.565Z,1.90
2023-03-16T05:46:43.064Z,2.53
2023-03-16T05:49:09.432Z,2.53
2023-03-16T05:51:35.786Z,2.55
2023-03-16T05:54:02.224Z,1.92
2023-03-16T05:56:29.952Z,2.33
2023-03-16T05:58:57.422Z,2.08
2023-03-16T06:01:24.031Z,2.17
2023-03-16T06:03:51.035Z,2.15
2023-03-16T06:06:18.595Z,2.42
2023-03-16T06:08:45.043Z,3.58
2023-03-16T06:11:12.085Z,2.53
2023-03-16T06:13:39.909Z,2.63
2023-03-16T06:16:07.049Z,2.25
2023-03-16T06:18:33.817Z,2.47
2023-03-16T06:21:00.224Z,2.92
2023-03-16T06:23:26.852Z,2.95
2023-03-16T06:25:53.221Z,3.53
2023-03-16T06:28:19.766Z,2.83
2023-03-16T06:30:47.547Z,2.55
2023-03-16T06:33:14.083Z,2.33
2023-03-16T06:35:40.476Z,2.33
2023-03-16T06:38:07.105Z,2.45
2023-03-16T06:40:33.451Z,2.63
2023-03-16T06:42:59.831Z,2.80
2023-03-16T06:45:26.577Z,3.08
2023-03-16T06:47:54.252Z,2.70
2023-03-16T06:50:20.606Z,3.40
2023-03-16T06:52:47.134Z,3.25
2023-03-16T06:55:13.525Z,2.65
2023-03-16T06:57:40.116Z,2.92
2023-03-16T07:00:09.074Z,2.53
2023-03-16T07:02:35.525Z,2.50
2023-03-16T07:05:03.458Z,2.88
2023-03-16T07:07:30.022Z,2.95
2023-03-16T07:09:56.450Z,2.70
2023-03-16T07:12:22.966Z,2.92
2023-03-16T07:14:52.437Z,2.65
2023-03-16T07:17:20.072Z,3.17
2023-03-16T07:19:46.514Z,2.97
2023-03-16T07:22:14.253Z,2.80
2023-03-16T07:24:40.607Z,2.80
2023-03-16T07:27:06.985Z,2.45
2023-03-16T07:29:33.487Z,3.80
2023-03-16T07:31:59.881Z,2.70
2023-03-16T07:34:26.338Z,2.92
2023-03-16T07:36:52.752Z,2.50
2023-03-16T07:39:20.546Z,3.80
2023-03-16T07:41:46.898Z,2.72
2023-03-16T07:44:13.311Z,2.63
2023-03-16T07:46:39.707Z,2.70
2023-03-16T07:49:06.060Z,2.95
2023-03-16T07:51:32.470Z,2.92
2023-03-16T07:53:58.868Z,2.80
2023-03-16T07:56:29.711Z,2.30
2023-03-16T07:58:57.969Z,2.78
2023-03-16T08:01:24.340Z,3.15
2023-03-16T08:03:50.745Z,3.08
2023-03-16T08:06:17.187Z,2.65
2023-03-16T08:08:43.553Z,2.38
2023-03-16T08:11:09.991Z,2.13
2023-03-16T08:13:37.722Z,2.08
2023-03-16T08:16:04.516Z,2.30
2023-03-16T08:18:31.422Z,1.90
2023-03-16T08:20:57.970Z,2.20
2023-03-16T08:23:25.514Z,2.30
2023-03-16T08:25:52.978Z,2.42
2023-03-16T08:28:19.495Z,2.55
2023-03-16T08:30:48.717Z,2.00
2023-03-16T08:33:15.223Z,2.17
2023-03-16T08:35:43.061Z,2.63
2023-03-16T08:38:09.440Z,2.10
2023-03-16T08:40:35.805Z,2.22
2023-03-16T08:43:02.266Z,2.10
2023-03-16T08:45:28.632Z,1.83
2023-03-16T08:47:56.322Z,1.92
2023-03-16T08:50:23.329Z,1.85
2023-03-16T08:52:49.932Z,1.92
2023-03-16T08:55:16.570Z,1.90
2023-03-16T08:57:43.119Z,1.67
2023-03-16T09:00:10.840Z,2.03
2023-03-16T09:02:37.179Z,2.33
2023-03-16T09:05:05.612Z,1.63
2023-03-16T09:07:31.958Z,1.95
2023-03-16T09:09:58.307Z,1.50
2023-03-16T09:12:24.696Z,2.10
2023-03-16T09:14:51.050Z,1.75
2023-03-16T09:17:17.405Z,2.15
2023-03-16T09:19:52.878Z,1.88
2023-03-16T09:22:21.849Z,1.98
2023-03-16T09:24:48.305Z,1.80
2023-03-16T09:27:14.859Z,2.03
2023-03-16T09:29:41.836Z,1.83
2023-03-16T09:32:09.371Z,1.30
2023-03-16T09:34:35.773Z,1.40
2023-03-16T09:37:02.135Z,1.58
2023-03-16T09:39:30.019Z,1.60
2023-03-16T09:42:03.158Z,1.70
2023-03-16T09:44:40.396Z,2.13
2023-03-16T09:47:10.581Z,1.20
2023-03-16T09:49:42.188Z,1.65
2023-03-16T09:52:20.093Z,1.63
2023-03-16T09:54:54.458Z,1.40
2023-03-16T09:57:26.892Z,1.38
2023-03-16T09:59:53.729Z,1.48
2023-03-16T10:02:38.736Z,1.83
2023-03-16T10:05:08.508Z,1.58
2023-03-16T10:07:46.662Z,2.00
2023-03-16T10:10:25.686Z,1.48
2023-03-16T10:12:59.157Z,1.35
2023-03-16T10:15:28.986Z,1.60
2023-03-16T10:17:59.154Z,1.67
2023-03-16T10:20:28.445Z,1.42
2023-03-16T10:22:55.361Z,1.88
2023-03-16T10:25:27.369Z,1.55
2023-03-16T10:27:53.752Z,1.83
2023-03-16T10:30:25.253Z,1.25
2023-03-16T10:32:52.578Z,1.50
2023-03-16T10:35:29.547Z,1.38
2023-03-16T10:37:56.155Z,1.45
2023-03-16T10:40:24.058Z,1.95
2023-03-16T10:42:50.454Z,1.17
2023-03-16T10:45:25.633Z,1.13
2023-03-16T10:47:53.343Z,1.05
2023-03-16T10:50:24.585Z,2.10
2023-03-16T10:52:51.470Z,1.35
2023-03-16T10:55:23.598Z,1.55
2023-03-16T10:57:53.967Z,1.20
2023-03-16T11:00:25.709Z,1.13
2023-03-16T11:02:54.435Z,1.20
2023-03-16T11:05:28.289Z,1.50
2023-03-16T11:08:00.001Z,2.03
2023-03-16T11:10:30.204Z,1.42
2023-03-16T11:13:03.578Z,1.35
2023-03-16T11:15:38.736Z,1.65
2023-03-16T11:18:06.570Z,1.63
2023-03-16T11:20:34.894Z,1.48
2023-03-16T11:23:01.821Z,1.30
2023-03-16T11:25:32.671Z,1.30
2023-03-16T11:28:08.880Z,1.20
2023-03-16T11:30:40.048Z,1.80
2023-03-16T11:33:09.659Z,1.48
2023-03-16T11:35:58.066Z,1.50
2023-03-16T11:38:32.653Z,1.45
2023-03-16T11:43:48.991Z,1.50
2023-03-16T11:46:20.471Z,1.55
2023-03-16T11:48:57.773Z,1.52
2023-03-16T11:51:35.027Z,2.57
2023-03-16T11:54:11.066Z,1.92
2023-03-16T11:56:42.781Z,1.50
2023-03-16T11:59:42.331Z,1.70
2023-03-16T12:02:29.046Z,1.70
2023-03-16T12:05:08.942Z,2.72
2023-03-16T12:07:49.486Z,2.20
2023-03-16T12:10:23.114Z,1.42
2023-03-16T12:13:05.407Z,1.50
2023-03-16T12:15:41.504Z,1.42
2023-03-16T12:18:15.310Z,1.55
2023-03-16T12:23:14.182Z,1.50
2023-03-16T12:25:45.280Z,1.80
2023-03-16T12:28:20.717Z,1.40
2023-03-16T12:30:57.395Z,1.45
2023-03-16T12:33:56.464Z,1.73
2023-03-16T12:36:42.225Z,1.17
2023-03-16T12:39:17.576Z,1.45
2023-03-16T12:41:56.755Z,1.45
2023-03-16T12:44:31.160Z,2.15
2023-03-16T12:47:02.832Z,2.15
2023-03-16T12:49:32.690Z,2.00
2023-03-16T12:52:01.066Z,1.50
2023-03-16T12:54:27.745Z,2.75
2023-03-16T12:57:01.765Z,1.95
2023-03-16T12:59:37.743Z,1.73
2023-03-16T13:02:14.124Z,1.63
2023-03-16T13:04:43.370Z,1.45
2023-03-16T13:07:17.158Z,1.70
2023-03-16T13:12:23.054Z,1.88
2023-03-16T13:14:49.450Z,1.67
2023-03-16T13:17:26.372Z,2.40
2023-03-16T13:20:07.946Z,1.55
2023-03-16T13:22:46.454Z,1.50
2023-03-16T13:25:16.808Z,1.45
2023-03-16T13:27:46.083Z,1.20
2023-03-16T13:30:19.839Z,2.10
2023-03-16T13:35:17.489Z,1.10
2023-03-16T13:37:44.272Z,1.67
2023-03-16T13:40:20.276Z,1.25
2023-03-16T13:42:47.770Z,0.77
2023-03-16T13:45:18.736Z,1.30
2023-03-16T13:47:47.350Z,1.58
2023-03-16T13:50:16.315Z,1.23
2023-03-16T13:52:49.860Z,2.20
2023-03-16T13:55:18.481Z,1.60
2023-03-16T13:57:46.053Z,1.40
2023-03-16T14:00:17.122Z,1.58
2023-03-16T14:02:45.319Z,1.70
2023-03-16T14:05:17.054Z,1.30
2023-03-16T14:07:46.891Z,1.00
2023-03-16T14:10:14.033Z,1.00
2023-03-16T14:12:50.979Z,1.38
2023-03-16T14:15:18.116Z,1.40
2023-03-16T14:17:44.609Z,1.45
2023-03-16T14:20:18.308Z,1.45
2023-03-16T14:25:19.309Z,1.17
2023-03-16T14:27:45.872Z,1.40
2023-03-16T14:30:17.493Z,1.23
2023-03-16T14:32:56.111Z,1.20
2023-03-16T14:35:26.125Z,1.38
2023-03-16T14:37:53.838Z,1.23
2023-03-16T14:40:23.772Z,1.30
2023-03-16T14:42:50.904Z,1.30
2023-03-16T14:45:18.343Z,2.20
2023-03-16T14:47:47.938Z,1.13
2023-03-16T14:50:17.529Z,1.23
2023-03-16T14:52:45.252Z,1.48
2023-03-16T14:55:16.511Z,1.50
2023-03-16T14:57:43.476Z,1.38
2023-03-16T15:00:11.950Z,1.73
2023-03-16T15:02:40.375Z,1.30
2023-03-16T15:05:08.798Z,1.73
2023-03-16T15:07:39.093Z,1.58
2023-03-16T15:10:16.545Z,2.40
2023-03-16T15:12:44.231Z,2.28
2023-03-16T15:15:15.512Z,1.70
2023-03-16T15:17:42.393Z,1.50
2023-03-16T15:20:10.670Z,1.58
2023-03-16T15:22:38.801Z,1.48
2023-03-16T15:25:20.182Z,1.27
2023-03-16T15:27:48.380Z,1.90
2023-03-16T15:30:16.680Z,1.40
2023-03-16T15:32:43.305Z,1.80
2023-03-16T15:35:10.149Z,1.45
2023-03-16T15:37:37.420Z,1.50
2023-03-16T15:40:15.532Z,1.35
2023-03-16T15:42:41.906Z,1.88
2023-03-16T15:45:13.531Z,1.42
2023-03-16T15:47:39.967Z,2.20
2023-03-16T15:50:07.042Z,1.60
2023-03-16T15:52:37.062Z,1.33
2023-03-16T15:55:03.991Z,1.92
2023-03-16T15:57:30.631Z,1.70
2023-03-16T15:59:57.287Z,1.63
2023-03-16T16:02:28.791Z,1.50
2023-03-16T16:04:55.590Z,1.75
2023-03-16T16:07:21.959Z,1.75
2023-03-16T16:09:48.406Z,1.70
2023-03-16T16:12:16.596Z,1.90
2023-03-16T16:14:43.001Z,1.73
2023-03-16T16:17:11.592Z,1.30
2023-03-16T16:19:39.387Z,2.70
2023-03-16T16:22:05.811Z,1.98
2023-03-16T16:24:32.215Z,2.53
2023-03-16T16:26:58.605Z,2.08
2023-03-16T16:29:29.706Z,2.17
2023-03-16T16:31:56.250Z,1.92
2023-03-16T16:34:24.071Z,2.00
2023-03-16T16:36:52.316Z,2.28
2023-03-16T16:39:18.716Z,2.15
2023-03-16T16:41:45.347Z,2.10
2023-03-16T16:44:35.278Z,2.70
2023-03-16T16:47:02.701Z,1.55
2023-03-16T16:49:30.141Z,1.42
2023-03-16T16:51:58.212Z,1.40
2023-03-16T16:54:27.870Z,2.80
2023-03-16T16:56:55.926Z,1.40
2023-03-16T16:59:25.499Z,1.52
2023-03-16T17:01:52.620Z,1.23
2023-03-16T17:04:21.306Z,1.27
2023-03-16T17:06:47.746Z,1.27
2023-03-16T17:09:15.425Z,1.10
2023-03-16T17:11:43.623Z,1.67
2023-03-16T17:14:16.991Z,2.08
2023-03-16T17:16:43.394Z,2.88
2023-03-16T17:19:18.096Z,1.10
2023-03-16T17:21:44.449Z,1.30
2023-03-16T17:24:10.805Z,1.08
2023-03-16T17:26:42.086Z,1.33
2023-03-16T17:29:15.751Z,1.25
2023-03-16T17:31:42.320Z,1.17
2023-03-16T17:34:17.238Z,1.20
2023-03-16T17:36:43.819Z,1.10
2023-03-16T17:39:17.068Z,1.20
2023-03-16T17:41:45.042Z,1.25
2023-03-16T17:44:14.099Z,1.50
2023-03-16T17:46:40.705Z,1.20
2023-03-16T17:49:11.658Z,1.55
2023-03-16T17:51:40.239Z,1.27
2023-03-16T17:54:06.911Z,1.30
2023-03-16T17:56:33.518Z,1.40
2023-03-16T17:59:04.812Z,1.20
2023-03-16T18:01:32.670Z,1.40
2023-03-16T18:03:59.578Z,1.42
2023-03-16T18:06:27.806Z,1.23
2023-03-16T18:08:54.408Z,1.38
2023-03-16T18:11:24.594Z,1.73
2023-03-16T18:13:51.768Z,1.35
2023-03-16T18:16:23.451Z,1.10
2023-03-16T18:18:51.461Z,1.70
2023-03-16T18:21:19.803Z,1.30
2023-03-16T18:23:46.395Z,1.23
2023-03-16T18:26:13.024Z,1.35
2023-03-16T18:28:39.416Z,1.40
2023-03-16T18:31:12.797Z,1.10
2023-03-16T18:33:41.174Z,1.58
2023-03-16T18:36:15.810Z,1.63
2023-03-16T18:38:44.828Z,1.55
2023-03-16T18:41:15.838Z,1.15
2023-03-16T18:43:42.395Z,3.25
2023-03-16T18:46:20.343Z,2.28
2023-03-16T18:48:48.209Z,1.73
2023-03-16T18:51:15.028Z,1.48
2023-03-16T18:53:42.090Z,1.25
2023-03-16T18:56:16.850Z,3.63
2023-03-16T18:58:43.337Z,1.80
2023-03-16T19:01:20.749Z,1.30
2023-03-16T19:03:48.940Z,1.75
2023-03-16T19:06:20.463Z,1.50
2023-03-16T19:08:46.967Z,1.20
2023-03-16T19:11:13.688Z,1.35
2023-03-16T19:13:40.042Z,1.52
2023-03-16T19:16:14.589Z,1.60
2023-03-16T19:18:41.003Z,1.33
2023-03-16T19:21:13.585Z,1.77
2023-03-16T19:23:40.232Z,1.33
2023-03-16T19:26:07.513Z,1.92
2023-03-16T19:28:35.874Z,1.90
2023-03-16T19:31:07.070Z,1.55
2023-03-16T19:33:33.653Z,5.55
2023-03-16T19:36:00.212Z,2.53
2023-03-16T19:38:27.984Z,2.30
2023-03-16T19:40:56.596Z,2.05
2023-03-16T19:43:23.785Z,1.58
2023-03-16T19:45:50.657Z,1.63
2023-03-16T19:48:19.377Z,1.63
2023-03-16T19:50:46.057Z,2.00
2023-03-16T19:53:16.157Z,1.50
2023-03-16T19:55:46.456Z,2.13
2023-03-16T19:58:20.860Z,1.90
2023-03-16T20:00:47.642Z,1.83
2023-03-16T20:03:14.404Z,2.30
2023-03-16T20:05:41.010Z,1.92
2023-03-16T20:08:21.839Z,1.80
2023-03-16T20:10:50.296Z,2.50
2023-03-16T20:13:17.006Z,2.00
2023-03-16T20:15:44.370Z,1.70
2023-03-16T20:18:12.792Z,1.70
2023-03-16T20:20:39.253Z,2.00
2023-03-16T20:23:15.529Z,1.85
2023-03-16T20:25:41.926Z,1.90
2023-03-16T20:28:16.993Z,1.98
2023-03-16T20:30:43.424Z,1.70
2023-03-16T20:33:16.457Z,1.90
2023-03-16T20:35:43.477Z,1.73
2023-03-16T20:38:11.786Z,2.00
2023-03-16T20:40:39.403Z,1.65
2023-03-16T20:43:20.335Z,2.00
2023-03-16T20:45:46.758Z,1.80
2023-03-16T20:48:14.357Z,2.22
2023-03-16T20:50:41.173Z,2.05
2023-03-16T20:53:07.846Z,2.30
2023-03-16T20:55:34.827Z,2.05
2023-03-16T20:58:02.156Z,2.00
2023-03-16T21:00:35.270Z,1.88
2023-03-16T21:03:14.144Z,1.88
2023-03-16T21:05:40.650Z,2.08
2023-03-16T21:08:07.003Z,1.75
2023-03-16T21:10:33.529Z,1.90
2023-03-16T21:13:00.097Z,1.70
2023-03-16T21:15:28.959Z,2.28
2023-03-16T21:17:59.271Z,2.42
2023-03-16T21:20:27.848Z,2.40
2023-03-16T21:22:54.420Z,2.00
2023-03-16T21:25:23.881Z,2.00
2023-03-16T21:27:52.460Z,2.00
2023-03-16T21:30:26.534Z,1.90
2023-03-16T21:32:53.849Z,2.20
2023-03-16T21:35:26.292Z,2.10
2023-03-16T21:37:52.666Z,2.03
2023-03-16T21:40:22.046Z,1.90
2023-03-16T21:42:49.029Z,1.90
2023-03-16T21:45:16.231Z,2.17
2023-03-16T21:47:43.521Z,2.15
2023-03-16T21:50:14.278Z,2.30
2023-03-16T21:52:42.929Z,2.40
2023-03-16T21:55:23.258Z,2.42
2023-03-16T21:57:50.620Z,1.90
2023-03-16T22:00:22.448Z,1.92
2023-03-16T22:02:51.809Z,2.50
2023-03-16T22:05:29.380Z,1.80
2023-03-16T22:07:58.383Z,2.03
2023-03-16T22:10:25.622Z,2.55
2023-03-16T22:12:52.094Z,2.10
2023-03-16T22:15:18.774Z,2.40
2023-03-16T22:17:45.297Z,2.22
2023-03-16T22:20:17.324Z,2.13
2023-03-16T22:22:44.062Z,2.70
2023-03-16T22:25:16.419Z,2.17
2023-03-16T22:27:43.042Z,2.35
2023-03-16T22:30:16.222Z,2.20
2023-03-16T22:32:42.724Z,1.65
2023-03-16T22:35:22.868Z,2.47
2023-03-16T22:37:49.359Z,2.17
2023-03-16T22:40:18.470Z,2.25
2023-03-16T22:42:45.378Z,2.35
2023-03-16T22:45:22.664Z,2.80
2023-03-16T22:47:49.284Z,2.42
2023-03-16T22:50:17.359Z,2.40
2023-03-16T22:52:45.871Z,2.35
2023-03-16T22:55:17.945Z,1.83
2023-03-16T22:57:45.267Z,3.15
2023-03-16T23:00:13.270Z,2.50
2023-03-16T23:02:40.182Z,2.33
2023-03-16T23:05:18.292Z,2.38
2023-03-16T23:07:44.651Z,2.22
2023-03-16T23:10:15.913Z,2.30
2023-03-16T23:12:44.201Z,2.10
2023-03-16T23:15:16.729Z,2.10
2023-03-16T23:17:43.221Z,2.28
2023-03-16T23:20:18.203Z,2.50
2023-03-16T23:22:44.629Z,2.10
2023-03-16T23:25:11.022Z,2.58
2023-03-16T23:27:37.442Z,2.40
2023-03-16T23:30:15.312Z,2.13
2023-03-16T23:32:41.967Z,2.60
2023-03-16T23:35:13.868Z,2.55
2023-03-16T23:37:40.226Z,2.45
2023-03-16T23:40:07.288Z,2.42
2023-03-16T23:42:33.733Z,2.60
2023-03-16T23:45:03.279Z,2.80
2023-03-16T23:47:31.039Z,2.17
2023-03-16T23:49:57.440Z,2.13
2023-03-16T23:52:23.807Z,2.50
2023-03-16T23:54:50.257Z,2.47
2023-03-16T23:57:16.635Z,2.15
2023-03-16T23:59:43.021Z,2.30
